Time;durP1;ratioP1;P1;durP2;ratioP2;P2;SDS_P1;SDS_P2;PMS_P1;PMS_P2;Temp;Humidity;BMP_temperature;BMP_pressure;BME280_temperature;BME280_humidity;BME280_pressure;Samples;Min_cycle;Max_cycle;Signal;HPM_P1;HPM_P2
2022/10/15 00:00:18;;;;;;;;;6.25;5.25;;;;;18.65;61.07;100521.63;5082362;27;45252;-52
2022/10/15 00:02:44;;;;;;;;;7.00;7.00;;;;;18.63;60.91;100521.69;5082460;27;45417;-51
2022/10/15 00:05:09;;;;;;;;;5.50;5.50;;;;;18.64;61.41;100520.75;5081916;27;46145;-51
2022/10/15 00:07:34;;;;;;;;;6.50;6.00;;;;;18.65;61.32;100529.59;5082290;27;45275;-52
2022/10/15 00:09:59;;;;;;;;;6.00;6.00;;;;;18.65;61.29;100521.63;5062101;28;51380;-54
2022/10/15 00:12:25;;;;;;;;;5.00;5.00;;;;;18.64;61.16;100518.09;5073388;28;53786;-53
2022/10/15 00:14:50;;;;;;;;;6.00;5.00;;;;;18.64;60.90;100525.22;5082019;27;45983;-51
2022/10/15 00:17:15;;;;;;;;;8.75;6.50;;;;;18.56;60.90;100506.13;5081757;27;45253;-54
2022/10/15 00:19:41;;;;;;;;;7.25;6.00;;;;;18.64;61.10;100511.91;5080933;28;45289;-53
2022/10/15 00:22:06;;;;;;;;;6.00;6.00;;;;;18.64;61.37;100517.22;5081772;27;49261;-54
2022/10/15 00:24:31;;;;;;;;;6.75;6.75;;;;;18.64;61.16;100518.09;5081779;28;45374;-53
2022/10/15 00:26:57;;;;;;;;;4.00;4.00;;;;;18.63;61.19;100515.53;5081967;27;45398;-53
2022/10/15 00:29:22;;;;;;;;;6.75;4.25;;;;;18.63;61.45;100505.75;5081746;27;45165;-53
2022/10/15 00:31:48;;;;;;;;;7.50;6.75;;;;;18.65;60.98;100509.19;5081890;27;45227;-52
2022/10/15 00:34:13;;;;;;;;;7.25;5.50;;;;;18.66;61.54;100504.72;5062738;28;47309;-53
2022/10/15 00:36:38;;;;;;;;;4.00;3.00;;;;;18.67;61.42;100506.44;5072546;28;45207;-54
2022/10/15 00:39:05;;;;;;;;;6.00;5.00;;;;;18.67;61.24;100506.44;5072586;27;45486;-53
2022/10/15 00:41:40;;;;;;;;;5.00;5.00;;;;;18.67;61.61;100493.13;5066772;28;45715;-52
2022/10/15 00:44:21;;;;;;;;;8.75;7.50;;;;;18.67;61.33;100493.13;5076457;27;45847;-54
2022/10/15 00:46:53;;;;;;;;;5.75;5.75;;;;;18.67;61.44;100495.78;5076807;28;45516;-53
2022/10/15 00:49:30;;;;;;;;;5.75;5.75;;;;;18.58;61.50;100488.28;5063854;28;45334;-53
2022/10/15 00:52:01;;;;;;;;;7.25;5.50;;;;;18.65;61.18;100492.34;5062486;27;46393;-53
2022/10/15 00:54:30;;;;;;;;;4.25;4.00;;;;;18.67;61.24;100495.78;5076015;27;47250;-52
2022/10/15 00:56:56;;;;;;;;;4.00;4.00;;;;;18.66;61.33;100499.38;5076663;27;45369;-54
2022/10/15 00:59:26;;;;;;;;;7.50;6.50;;;;;18.62;61.72;100490.69;5068037;27;45365;-54
2022/10/15 01:01:52;;;;;;;;;7.50;6.50;;;;;18.65;61.25;100490.56;5073563;28;45445;-54
2022/10/15 01:04:17;;;;;;;;;8.75;7.00;;;;;18.65;61.09;100484.34;5075832;28;46264;-54
2022/10/15 01:06:43;;;;;;;;;8.00;8.00;;;;;18.63;61.44;100488.91;5075574;28;45319;-52
2022/10/15 01:09:09;;;;;;;;;4.25;4.25;;;;;18.64;61.57;100488.84;5068632;28;46412;-54
2022/10/15 01:11:41;;;;;;;;;5.00;5.00;;;;;18.64;61.58;100485.28;5079092;27;45444;-52
2022/10/15 01:14:46;;;;;;;;;5.00;5.00;;;;;18.63;61.37;100486.25;5079570;28;45452;-52
2022/10/15 01:17:33;;;;;;;;;6.25;4.75;;;;;18.61;61.56;100483.66;5080955;27;45552;-53
2022/10/15 01:20:33;;;;;;;;;5.25;5.25;;;;;18.61;61.37;100477.47;5079828;27;45386;-54
2022/10/15 01:23:30;;;;;;;;;4.50;4.50;;;;;18.60;61.41;100473.09;5080872;27;45247;-53
2022/10/15 01:26:04;;;;;;;;;5.00;5.00;;;;;18.58;61.73;100465.19;5078938;28;45264;-53
2022/10/15 01:28:42;;;;;;;;;5.00;4.00;;;;;18.56;61.60;100461.75;5081027;28;45250;-54
2022/10/15 01:31:43;;;;;;;;;4.00;4.00;;;;;18.56;61.42;100458.25;5080936;27;45357;-53
2022/10/15 01:34:35;;;;;;;;;3.75;3.75;;;;;18.56;61.43;100450.25;5080824;27;45481;-54
2022/10/15 01:37:12;;;;;;;;;5.00;4.00;;;;;18.54;61.38;100431.72;5079380;28;45318;-54
2022/10/15 01:39:49;;;;;;;;;4.00;4.00;;;;;18.53;61.72;100437.97;5080688;28;45217;-52
2022/10/15 01:42:22;;;;;;;;;2.00;2.00;;;;;18.52;61.55;100438.91;5080858;28;45463;-52
2022/10/15 01:44:57;;;;;;;;;3.00;2.00;;;;;18.51;61.75;100426.53;5081044;27;45500;-53
2022/10/15 01:47:29;;;;;;;;;2.75;2.75;;;;;18.51;61.41;100419.44;5080523;27;46036;-51
2022/10/15 01:49:57;;;;;;;;;2.00;2.00;;;;;18.49;61.71;100416.00;5080454;27;45441;-51
2022/10/15 01:52:29;;;;;;;;;2.75;2.75;;;;;18.51;61.72;100422.09;5080522;27;45188;-54
2022/10/15 01:54:55;;;;;;;;;3.00;2.50;;;;;18.49;61.80;100423.13;5080599;27;45383;-53
2022/10/15 01:57:24;;;;;;;;;3.75;3.75;;;;;18.47;61.40;100414.34;5080438;27;45376;-53
2022/10/15 01:59:50;;;;;;;;;2.00;2.00;;;;;18.50;61.65;100416.84;5080380;27;45329;-52
2022/10/15 02:02:15;;;;;;;;;5.00;3.25;;;;;18.48;61.85;100411.59;5080521;27;45458;-51
2022/10/15 02:04:40;;;;;;;;;3.00;3.00;;;;;18.48;61.44;100398.31;5065776;28;45383;-51
2022/10/15 02:07:10;;;;;;;;;3.00;3.00;;;;;18.50;61.75;100408.84;5080063;27;54248;-54
2022/10/15 02:10:20;;;;;;;;;3.00;3.00;;;;;18.50;61.54;100401.75;5080082;27;45408;-52
2022/10/15 02:13:02;;;;;;;;;3.25;3.25;;;;;18.47;61.85;100390.41;5040998;28;45439;-53
2022/10/15 02:16:09;;;;;;;;;4.25;3.00;;;;;18.47;61.63;100377.09;5056869;28;45587;-53
2022/10/15 02:18:55;;;;;;;;;3.50;3.50;;;;;18.46;61.72;100368.25;5068250;28;46344;-52
2022/10/15 02:21:36;;;;;;;;;3.00;3.00;;;;;18.45;61.83;100371.88;5079911;27;45181;-54
2022/10/15 02:24:18;;;;;;;;;6.25;4.25;;;;;18.44;61.45;100356.84;5080128;27;45234;-52
2022/10/15 02:26:45;;;;;;;;;2.25;2.25;;;;;18.43;61.86;100355.13;5080256;27;45301;-51
2022/10/15 02:29:15;;;;;;;;;3.25;3.25;;;;;18.43;61.98;100348.97;5078595;28;46612;-48
2022/10/15 02:31:44;;;;;;;;;4.00;3.00;;;;;18.41;62.10;100346.34;5080244;27;45398;-54
2022/10/15 02:34:15;;;;;;;;;2.75;2.75;;;;;18.40;62.14;100323.38;5080083;27;45393;-50
2022/10/15 02:36:41;;;;;;;;;3.25;2.00;;;;;18.39;62.30;100308.34;5079823;27;45413;-53
2022/10/15 02:39:11;;;;;;;;;3.00;3.00;;;;;18.37;61.92;100304.91;5079546;27;46442;-50
2022/10/15 02:41:38;;;;;;;;;2.00;2.00;;;;;18.39;61.83;100334.97;5080182;28;45453;-52
2022/10/15 02:44:04;;;;;;;;;2.75;1.00;;;;;18.38;61.77;100311.94;5079946;27;45345;-54
2022/10/15 02:46:30;;;;;;;;;2.00;2.00;;;;;18.36;62.10;100308.50;5080015;27;45504;-52
2022/10/15 02:48:55;;;;;;;;;2.50;1.00;;;;;18.35;61.88;100298.81;5079585;27;46118;-54
2022/10/15 02:51:20;;;;;;;;;1.00;1.00;;;;;18.35;61.82;100304.13;5079829;27;45242;-53
2022/10/15 02:53:45;;;;;;;;;2.50;1.75;;;;;18.35;61.83;100293.47;5079843;27;45259;-50
2022/10/15 02:56:11;;;;;;;;;1.25;1.25;;;;;18.34;62.11;100287.31;5080152;27;45140;-51
2022/10/15 02:58:36;;;;;;;;;4.25;1.50;;;;;18.34;61.86;100295.28;5079589;27;45338;-51
2022/10/15 03:01:02;;;;;;;;;0.00;0.00;;;;;18.33;62.10;100287.41;5079929;27;45294;-52
2022/10/15 03:03:27;;;;;;;;;1.75;1.00;;;;;18.30;62.26;100285.78;5079867;27;45379;-50
2022/10/15 03:05:52;;;;;;;;;1.75;1.25;;;;;18.33;62.29;100298.88;5079728;27;45441;-51
2022/10/15 03:08:17;;;;;;;;;1.25;1.25;;;;;18.33;62.07;100290.91;5079327;27;46295;-53
2022/10/15 03:10:44;;;;;;;;;1.00;1.00;;;;;18.31;62.27;100286.63;5079737;27;45310;-53
2022/10/15 03:13:09;;;;;;;;;1.25;1.00;;;;;18.30;62.32;100285.78;5079680;27;45362;-53
2022/10/15 03:15:35;;;;;;;;;2.00;1.00;;;;;18.31;62.51;100286.63;5079724;27;45329;-53
2022/10/15 03:18:00;;;;;;;;;0.25;0.25;;;;;18.30;62.26;100279.56;5079318;28;45485;-54
2022/10/15 03:20:26;;;;;;;;;1.50;0.25;;;;;18.28;62.37;100271.69;5078193;28;45353;-53
2022/10/15 03:22:51;;;;;;;;;1.00;1.00;;;;;18.30;62.29;100268.94;5079712;27;45231;-53
2022/10/15 03:25:17;;;;;;;;;1.00;1.00;;;;;18.28;62.61;100266.38;5079716;27;45216;-54
2022/10/15 03:27:42;;;;;;;;;2.25;2.25;;;;;18.29;62.46;100251.28;5080424;27;45966;-53
2022/10/15 03:30:08;;;;;;;;;0.00;0.00;;;;;18.26;62.52;100262.06;5082809;27;47312;-51
2022/10/15 03:32:33;;;;;;;;;1.00;1.00;;;;;18.28;62.55;100254.88;5082944;27;45227;-53
2022/10/15 03:34:58;;;;;;;;;0.50;0.50;;;;;18.26;62.64;100244.31;5082782;27;45169;-54
2022/10/15 03:37:24;;;;;;;;;0.00;0.00;;;;;18.27;62.75;100242.53;5082607;27;45215;-52
2022/10/15 03:39:49;;;;;;;;;0.00;0.00;;;;;18.27;62.81;100231.88;5082681;27;45337;-53
2022/10/15 03:42:14;;;;;;;;;0.75;0.00;;;;;18.26;62.87;100243.47;5082910;28;45299;-52
2022/10/15 03:44:40;;;;;;;;;0.00;0.00;;;;;18.27;62.66;100232.72;5082850;27;45243;-53
2022/10/15 03:47:05;;;;;;;;;1.00;0.00;;;;;18.29;62.51;100232.66;5082616;27;45667;-52
2022/10/15 03:49:30;;;;;;;;;1.50;1.50;;;;;18.28;62.57;100226.47;5082558;27;45346;-54
2022/10/15 03:51:56;;;;;;;;;0.00;0.00;;;;;18.29;62.47;100224.69;5082490;27;45263;-51
2022/10/15 03:54:21;;;;;;;;;2.00;0.00;;;;;18.24;62.77;100216.06;5082469;27;45494;-54
2022/10/15 03:56:47;;;;;;;;;0.75;0.00;;;;;18.25;62.75;100212.47;5082342;27;45997;-51
2022/10/15 03:59:12;;;;;;;;;0.50;0.50;;;;;18.29;62.56;100211.41;5082386;27;45310;-55
2022/10/15 04:01:37;;;;;;;;;0.00;0.00;;;;;18.29;62.93;100216.72;5082529;28;45543;-54
2022/10/15 04:04:03;;;;;;;;;0.50;0.25;;;;;18.27;63.08;100202.63;5082589;27;45252;-54
2022/10/15 04:06:28;;;;;;;;;2.00;1.00;;;;;18.29;62.87;100211.41;5081897;27;46158;-54
2022/10/15 04:08:53;;;;;;;;;0.00;0.00;;;;;18.30;62.83;100205.97;5082241;27;45314;-53
2022/10/15 04:11:19;;;;;;;;;0.00;0.00;;;;;18.28;62.99;100207.00;5079187;27;46594;-53
2022/10/15 04:13:48;;;;;;;;;10.25;8.75;;;;;18.29;63.27;100195.44;5075276;27;45410;-53
2022/10/15 04:16:14;;;;;;;;;1.50;1.00;;;;;18.27;63.07;100190.19;5066596;27;46264;-54
2022/10/15 04:18:39;;;;;;;;;0.00;0.00;;;;;18.29;63.35;100200.75;5076571;27;45219;-52
2022/10/15 04:21:04;;;;;;;;;0.00;0.00;;;;;18.26;62.71;100182.28;5076990;27;45343;-54
2022/10/15 04:23:30;;;;;;;;;1.25;1.25;;;;;18.26;63.20;100191.13;5077014;27;45458;-54
2022/10/15 04:25:59;;;;;;;;;1.00;1.00;;;;;18.27;63.75;100186.69;5076587;27;46165;-55
2022/10/15 04:28:24;;;;;;;;;2.00;2.00;;;;;18.26;63.82;100182.28;5077368;27;45670;-54
2022/10/15 04:30:50;;;;;;;;;1.75;1.25;;;;;18.17;63.64;100175.69;5077648;27;46535;-53
2022/10/15 04:33:15;;;;;;;;;0.50;0.50;;;;;18.24;63.51;100179.72;5067436;28;45929;-51
2022/10/15 04:35:40;;;;;;;;;2.75;1.00;;;;;18.25;63.49;100184.09;5068976;28;45693;-52
2022/10/15 04:38:05;;;;;;;;;1.25;1.25;;;;;18.27;63.57;100184.00;5072153;27;45322;-54
2022/10/15 04:40:31;;;;;;;;;2.00;1.00;;;;;18.24;63.69;100185.03;5059136;28;45319;-54
2022/10/15 04:42:56;;;;;;;;;1.75;1.75;;;;;18.27;63.78;100192.84;5062330;27;45424;-54
2022/10/15 04:45:21;;;;;;;;;1.75;1.75;;;;;18.27;63.76;100194.66;5075178;28;48398;-53
2022/10/15 04:47:47;;;;;;;;;1.25;0.25;;;;;18.26;63.98;100188.47;5080003;27;45280;-53
2022/10/15 04:50:12;;;;;;;;;2.00;2.00;;;;;18.27;63.91;100184.00;5081567;27;45262;-54
2022/10/15 04:52:37;;;;;;;;;1.75;1.00;;;;;18.28;64.15;100186.59;5080031;28;50181;-54
2022/10/15 04:55:03;;;;;;;;;1.00;1.00;;;;;18.27;63.93;100184.00;5081474;27;46102;-54
2022/10/15 04:57:29;;;;;;;;;3.50;0.50;;;;;18.30;64.05;100189.16;5072126;28;45316;-49
2022/10/15 04:59:55;;;;;;;;;1.00;1.00;;;;;18.30;63.66;100182.03;5076132;28;45291;-50
2022/10/15 05:02:20;;;;;;;;;2.25;1.00;;;;;18.32;63.74;100192.59;5081099;27;46464;-53
2022/10/15 05:04:45;;;;;;;;;2.00;1.00;;;;;18.33;63.87;100189.00;5081119;28;46535;-53
2022/10/15 05:07:10;;;;;;;;;1.25;0.25;;;;;18.32;64.24;100197.91;5080277;28;45316;-54
2022/10/15 05:09:36;;;;;;;;;3.25;1.25;;;;;18.34;63.89;100201.34;5079852;28;45251;-55
2022/10/15 05:12:01;;;;;;;;;1.25;1.25;;;;;18.33;64.09;100200.47;5081571;27;45470;-54
2022/10/15 05:14:27;;;;;;;;;0.00;0.00;;;;;18.32;64.02;100204.06;5081221;27;46288;-54
2022/10/15 05:16:52;;;;;;;;;2.25;1.00;;;;;18.34;63.83;100207.53;5081017;27;45408;-55
2022/10/15 05:19:17;;;;;;;;;0.00;0.00;;;;;18.34;64.09;100202.22;5080911;27;49241;-54
2022/10/15 05:21:43;;;;;;;;;0.25;0.25;;;;;18.38;63.80;100205.56;5081082;27;45536;-55
2022/10/15 05:24:09;;;;;;;;;2.50;1.00;;;;;18.32;64.18;100200.56;5080930;27;45309;-53
2022/10/15 05:26:34;;;;;;;;;4.00;1.00;;;;;18.35;64.03;100198.59;5081179;27;45327;-54
2022/10/15 05:29:00;;;;;;;;;0.25;0.00;;;;;18.37;63.94;100208.31;5081188;27;45406;-51
2022/10/15 05:31:29;;;;;;;;;1.00;0.00;;;;;18.38;64.05;100210.88;5081296;27;45389;-51
2022/10/15 05:33:55;;;;;;;;;1.50;0.50;;;;;18.38;64.05;100202.91;5080914;27;45188;-50
2022/10/15 05:36:28;;;;;;;;;1.00;0.50;;;;;18.40;64.09;100200.16;5080815;27;45213;-54
2022/10/15 05:38:56;;;;;;;;;1.00;1.00;;;;;18.38;64.18;100199.34;5068811;27;45461;-54
2022/10/15 05:41:22;;;;;;;;;1.00;0.00;;;;;18.35;63.98;100195.06;5070028;28;45316;-51
2022/10/15 05:43:52;;;;;;;;;0.00;0.00;;;;;18.35;64.33;100200.38;5080560;27;46558;-51
2022/10/15 05:46:19;;;;;;;;;2.00;1.00;;;;;18.32;64.38;100195.25;5080913;27;45662;-54
2022/10/15 05:48:52;;;;;;;;;0.00;0.00;;;;;18.34;64.61;100199.53;5080720;27;45268;-54
2022/10/15 05:51:18;;;;;;;;;0.00;0.00;;;;;18.36;64.54;100199.44;5095369;27;45416;-49
2022/10/15 05:53:47;;;;;;;;;0.25;0.25;;;;;18.32;64.60;100189.94;5080379;27;45251;-49
2022/10/15 05:56:14;;;;;;;;;1.00;1.00;;;;;18.34;64.03;100196.03;5080538;27;45444;-49
2022/10/15 05:58:39;;;;;;;;;2.00;0.75;;;;;18.32;64.29;100187.28;5078550;27;46488;-53
2022/10/15 06:01:07;;;;;;;;;1.00;1.00;;;;;18.35;64.34;100197.72;5071661;28;45382;-54
2022/10/15 06:03:33;;;;;;;;;2.00;1.00;;;;;18.34;64.38;100191.56;5078607;28;45976;-49
2022/10/15 06:05:59;;;;;;;;;0.00;0.00;;;;;18.34;64.81;100188.06;5080283;27;45226;-54
2022/10/15 06:08:26;;;;;;;;;0.00;0.00;;;;;18.32;64.68;100190.78;5079092;28;45282;-54
2022/10/15 06:10:51;;;;;;;;;1.50;0.00;;;;;18.34;64.69;100190.72;5080494;27;45540;-54
2022/10/15 06:13:16;;;;;;;;;1.00;1.00;;;;;18.35;64.26;100192.41;5080201;27;48146;-52
2022/10/15 06:15:44;;;;;;;;;0.75;0.75;;;;;18.34;64.73;100188.91;5080231;27;45321;-52
2022/10/15 06:18:11;;;;;;;;;0.00;0.00;;;;;18.32;64.61;100201.41;5080218;27;45374;-50
2022/10/15 06:20:36;;;;;;;;;1.00;0.50;;;;;18.31;64.60;100202.38;5079789;27;45539;-54
2022/10/15 06:23:03;;;;;;;;;0.00;0.00;;;;;18.27;64.80;100190.19;5075254;28;46503;-52
2022/10/15 06:25:29;;;;;;;;;1.00;0.00;;;;;18.28;64.70;100189.25;5072109;28;45255;-55
2022/10/15 06:27:54;;;;;;;;;2.25;1.00;;;;;18.28;64.74;100186.59;5080034;27;45228;-53
2022/10/15 06:30:19;;;;;;;;;1.75;0.50;;;;;18.28;64.63;100202.53;5080282;27;45488;-53
2022/10/15 06:32:48;;;;;;;;;0.75;0.75;;;;;18.26;64.83;100192.94;5079871;27;45328;-50
2022/10/15 06:35:14;;;;;;;;;1.50;1.50;;;;;18.29;64.62;100209.59;5080039;27;45410;-53
2022/10/15 06:37:39;;;;;;;;;2.00;1.00;;;;;18.30;64.50;100200.66;5078332;27;45882;-57
2022/10/15 06:40:05;;;;;;;;;1.00;0.25;;;;;18.35;64.33;100200.38;5071017;28;45339;-58
2022/10/15 06:42:31;;;;;;;;;1.00;1.00;;;;;18.37;64.45;100201.19;5075468;28;45909;-55
2022/10/15 06:44:56;;;;;;;;;0.00;0.00;;;;;18.39;64.35;100209.94;5071789;27;45410;-58
2022/10/15 06:47:21;;;;;;;;;0.25;0.25;;;;;18.41;64.69;100209.84;5072926;27;49299;-57
2022/10/15 06:49:47;;;;;;;;;2.50;0.00;;;;;18.40;64.37;100205.47;5077665;27;45534;-56
2022/10/15 06:52:12;;;;;;;;;0.75;0.00;;;;;18.40;64.73;100219.63;5077434;27;45591;-57
2022/10/15 06:54:37;;;;;;;;;0.00;0.00;;;;;18.46;64.28;100208.63;5077673;28;47598;-60
2022/10/15 06:57:03;;;;;;;;;1.00;0.75;;;;;18.42;64.28;100219.56;5078118;27;45520;-53
2022/10/15 06:59:28;;;;;;;;;1.25;1.25;;;;;18.42;64.52;100222.22;5077791;28;45429;-55
2022/10/15 07:01:53;;;;;;;;;0.00;0.00;;;;;18.39;64.42;100209.94;5079009;27;45333;-55
2022/10/15 07:04:18;;;;;;;;;1.75;0.50;;;;;18.41;64.80;100210.69;5080317;27;45415;-54
2022/10/15 07:06:44;;;;;;;;;1.00;1.00;;;;;18.45;64.63;100219.38;5081108;27;45398;-57
2022/10/15 07:09:09;;;;;;;;;3.00;2.00;;;;;18.47;64.70;100209.50;5081119;27;45413;-55
2022/10/15 07:11:34;;;;;;;;;0.00;0.00;;;;;18.46;64.57;100221.94;5075962;28;51796;-55
2022/10/15 07:14:00;;;;;;;;;0.00;0.00;;;;;18.49;64.46;100220.94;5081433;27;45444;-56
2022/10/15 07:16:25;;;;;;;;;1.00;0.00;;;;;18.49;64.43;100218.28;5081279;27;45401;-57
2022/10/15 07:18:50;;;;;;;;;2.00;0.00;;;;;18.52;64.40;100226.91;5080830;27;45549;-56
2022/10/15 07:21:16;;;;;;;;;0.00;0.00;;;;;18.54;64.81;100218.00;5079879;28;46172;-55
2022/10/15 07:23:41;;;;;;;;;1.00;1.00;;;;;18.51;64.97;100227.00;5081028;27;45526;-59
2022/10/15 07:26:07;;;;;;;;;1.00;1.00;;;;;18.51;64.82;100227.00;5081569;27;45258;-58
2022/10/15 07:28:32;;;;;;;;;1.00;1.00;;;;;18.48;64.60;100222.72;5074589;28;45465;-56
2022/10/15 07:31:02;;;;;;;;;1.00;1.00;;;;;18.52;64.61;100226.91;5080515;28;46053;-55
2022/10/15 07:33:28;;;;;;;;;1.25;1.00;;;;;18.58;64.74;100232.84;5076782;28;46291;-58
2022/10/15 07:35:53;;;;;;;;;1.00;1.00;;;;;18.60;64.81;100223.84;5081132;27;45427;-55
2022/10/15 07:38:18;;;;;;;;;1.75;1.75;;;;;18.56;64.68;100222.28;5079227;28;45408;-58
2022/10/15 07:40:44;;;;;;;;;1.00;1.00;;;;;18.60;64.54;100237.16;5081042;27;46704;-56
2022/10/15 07:43:09;;;;;;;;;11.25;10.50;;;;;18.61;64.99;100238.84;5081084;27;45491;-55
2022/10/15 07:45:35;;;;;;;;;1.00;1.00;;;;;18.61;64.35;100225.53;5072100;28;45630;-57
2022/10/15 07:48:00;;;;;;;;;1.00;0.00;;;;;18.52;64.96;100221.59;5065729;27;45573;-58
2022/10/15 07:50:25;;;;;;;;;1.00;1.00;;;;;18.60;65.07;100231.84;5069217;27;45930;-58
2022/10/15 07:52:51;;;;;;;;;2.00;1.00;;;;;18.61;65.33;100245.97;5066771;28;45489;-58
2022/10/15 07:55:16;;;;;;;;;0.25;0.00;;;;;18.65;65.25;100231.56;5071133;28;46020;-58
2022/10/15 07:57:41;;;;;;;;;0.00;0.00;;;;;18.63;65.16;100236.97;5068680;27;45541;-58
2022/10/15 08:00:08;;;;;;;;;0.00;0.00;;;;;18.64;64.85;100236.03;5068389;28;47262;-58
2022/10/15 08:02:34;;;;;;;;;0.00;0.00;;;;;18.64;65.12;100235.16;5067415;27;45690;-58
2022/10/15 08:04:59;;;;;;;;;1.00;1.00;;;;;18.70;65.21;100240.13;5068492;27;45784;-58
2022/10/15 08:07:24;;;;;;;;;0.00;0.00;;;;;18.68;64.83;100276.63;5067483;27;45807;-58
2022/10/15 08:09:50;;;;;;;;;1.25;0.75;;;;;18.72;65.40;100259.56;5070671;27;45611;-57
2022/10/15 08:12:16;;;;;;;;;2.00;1.00;;;;;18.75;65.49;100264.69;5066372;27;45855;-58
2022/10/15 08:14:41;;;;;;;;;0.00;0.00;;;;;18.78;65.02;100263.66;5069902;28;45736;-58
2022/10/15 08:17:06;;;;;;;;;0.00;0.00;;;;;18.79;65.17;100271.56;5072457;28;45938;-57
2022/10/15 08:19:32;;;;;;;;;0.00;0.00;;;;;18.81;65.47;100280.31;5079457;27;46601;-58
2022/10/15 08:21:57;;;;;;;;;0.00;0.00;;;;;18.81;64.89;100275.00;5079409;27;45418;-58
2022/10/15 08:24:23;;;;;;;;;0.00;0.00;;;;;18.84;65.42;100288.16;5079620;28;45381;-58
2022/10/15 08:26:49;;;;;;;;;1.00;1.00;;;;;18.84;65.46;100274.84;5079477;27;45486;-58
2022/10/15 08:29:15;;;;;;;;;2.00;0.50;;;;;18.84;65.58;100268.63;5080454;28;46143;-58
2022/10/15 08:31:41;;;;;;;;;1.25;0.00;;;;;18.87;65.16;100275.59;5080398;27;45438;-58
2022/10/15 08:34:07;;;;;;;;;1.00;0.00;;;;;18.89;65.02;100281.69;5080638;27;45314;-56
2022/10/15 08:36:33;;;;;;;;;2.00;1.00;;;;;18.90;65.07;100276.31;5079974;27;45362;-56
2022/10/15 08:38:58;;;;;;;;;0.00;0.00;;;;;18.93;65.28;100288.59;5078257;27;45417;-56
2022/10/15 08:41:37;;;;;;;;;0.00;0.00;;;;;18.94;65.30;100290.31;5080201;27;45331;-56
2022/10/15 08:44:03;;;;;;;;;1.25;0.00;;;;;18.97;65.27;100287.50;5080315;28;45241;-56
2022/10/15 08:46:41;;;;;;;;;3.00;1.25;;;;;18.99;65.04;100286.47;5077406;28;45666;-59
2022/10/15 08:49:20;;;;;;;;;0.00;0.00;;;;;19.03;65.31;100295.13;5077620;28;45457;-56
2022/10/15 08:51:52;;;;;;;;;0.50;0.00;;;;;19.03;64.95;100299.59;5085413;27;45362;-56
2022/10/15 08:54:18;;;;;;;;;0.00;0.00;;;;;19.03;65.43;100294.25;5080146;27;45500;-59
2022/10/15 08:56:47;;;;;;;;;0.50;0.50;;;;;19.10;65.13;100301.81;5079793;27;45426;-59
2022/10/15 08:59:26;;;;;;;;;0.75;0.75;;;;;19.13;65.09;100309.63;5079704;27;45265;-59
2022/10/15 09:02:01;;;;;;;;;0.00;0.00;;;;;19.15;64.70;100299.75;5078070;28;45476;-59
2022/10/15 09:05:09;;;;;;;;;1.00;0.00;;;;;19.20;65.03;100306.63;5077472;28;45495;-59
2022/10/15 09:07:43;;;;;;;;;1.00;1.00;;;;;19.22;65.16;100296.72;5078445;28;45445;-56
2022/10/15 09:10:26;;;;;;;;;0.75;0.00;;;;;19.24;64.90;100302.84;5079718;27;45510;-59
2022/10/15 09:12:57;;;;;;;;;0.00;0.00;;;;;19.28;64.82;100309.69;5078142;28;45472;-56
2022/10/15 09:15:24;;;;;;;;;0.00;0.00;;;;;19.34;65.00;100320.00;5079866;27;45232;-58
2022/10/15 09:17:54;;;;;;;;;1.25;1.25;;;;;19.38;64.90;100326.84;5079260;27;45353;-56
2022/10/15 09:20:29;;;;;;;;;0.00;0.00;;;;;19.41;65.02;100320.53;5079181;27;46312;-56
2022/10/15 09:22:55;;;;;;;;;1.00;1.00;;;;;19.42;64.61;100320.44;5079306;28;45403;-56
2022/10/15 09:25:22;;;;;;;;;1.00;1.00;;;;;19.46;64.75;100324.63;5077044;28;45363;-56
2022/10/15 09:27:50;;;;;;;;;0.33;0.00;;;;;19.48;64.72;100322.75;5079509;27;45239;-58
2022/10/15 09:30:44;;;;;;;;;0.00;0.00;;;;;19.56;64.68;100326.75;5079059;27;46089;-56
2022/10/15 09:33:24;;;;;;;;;0.75;0.75;;;;;19.61;64.80;100332.69;5077135;28;45583;-51
2022/10/15 09:36:11;;;;;;;;;0.00;0.00;;;;;19.64;64.38;100329.81;5076370;28;45398;-53
2022/10/15 09:38:54;;;;;;;;;9.25;5.25;;;;;19.68;64.37;100339.34;5077979;28;45515;-56
2022/10/15 09:42:11;;;;;;;;;2.25;2.00;;;;;19.72;64.55;100338.25;5075297;28;45453;-57
2022/10/15 09:44:40;;;;;;;;;2.00;0.00;;;;;19.71;64.00;100344.53;5042693;27;45266;-55
2022/10/15 09:47:24;;;;;;;;;1.50;1.50;;;;;19.76;63.80;100344.22;5077531;28;45433;-59
2022/10/15 09:49:49;;;;;;;;;0.50;0.50;;;;;19.75;63.61;100335.38;5072933;28;45455;-59
2022/10/15 09:52:18;;;;;;;;;1.75;1.00;;;;;19.80;63.33;100343.97;5080592;27;46142;-59
2022/10/15 09:55:07;;;;;;;;;1.00;1.00;;;;;19.80;63.89;100353.78;5080662;28;45315;-57
2022/10/15 09:57:36;;;;;;;;;1.75;1.00;;;;;19.80;63.61;100340.44;5080646;27;45501;-61
2022/10/15 10:00:07;;;;;;;;;0.75;0.00;;;;;19.80;63.87;100351.13;5072905;28;45636;-58
2022/10/15 10:02:32;;;;;;;;;0.00;0.00;;;;;19.80;63.85;100362.63;5080439;27;46215;-61
2022/10/15 10:05:19;;;;;;;;;0.00;0.00;;;;;19.90;63.45;100378.09;5079160;27;45507;-59
2022/10/15 10:07:44;;;;;;;;;0.25;0.25;;;;;19.92;62.97;100384.22;5076637;28;45376;-59
2022/10/15 10:10:26;;;;;;;;;2.00;1.00;;;;;19.92;63.66;100393.09;5078689;27;45268;-58
2022/10/15 10:12:54;;;;;;;;;2.00;1.00;;;;;19.97;63.00;100391.00;5077465;28;46552;-57
2022/10/15 10:15:33;;;;;;;;;0.00;0.00;;;;;20.04;62.83;100394.16;5077425;28;45351;-53
2022/10/15 10:17:59;;;;;;;;;0.75;0.75;;;;;20.07;63.20;100395.78;5078047;28;45334;-56
2022/10/15 10:20:29;;;;;;;;;3.00;1.00;;;;;20.08;62.57;100382.34;5078567;27;45397;-56
2022/10/15 10:23:19;;;;;;;;;1.00;0.00;;;;;20.11;62.76;100387.50;5078648;27;46159;-54
2022/10/15 10:25:45;;;;;;;;;1.00;0.25;;;;;20.12;62.26;100401.69;5067542;28;45303;-56
2022/10/15 10:28:13;;;;;;;;;1.00;0.00;;;;;20.13;62.12;100392.75;5078843;27;45310;-53
2022/10/15 10:30:50;;;;;;;;;0.75;0.75;;;;;20.15;62.77;100390.88;5078745;27;45521;-53
2022/10/15 10:33:24;;;;;;;;;0.75;0.00;;;;;20.14;62.47;100381.13;5078567;27;46290;-51
2022/10/15 10:35:50;;;;;;;;;1.00;1.00;;;;;20.19;62.16;100381.72;5075144;28;45464;-53
2022/10/15 10:38:34;;;;;;;;;2.00;0.25;;;;;20.21;62.47;100392.28;5081766;27;45369;-56
2022/10/15 10:41:17;;;;;;;;;0.00;0.00;;;;;20.26;61.92;100398.19;5081674;28;45523;-55
2022/10/15 10:43:53;;;;;;;;;0.50;0.00;;;;;20.33;61.80;100396.88;5079355;28;45530;-49
2022/10/15 10:46:21;;;;;;;;;0.25;0.25;;;;;20.35;61.66;100403.00;5080830;28;45361;-57
2022/10/15 10:48:49;;;;;;;;;0.00;0.00;;;;;20.41;61.38;100396.41;5081830;27;45294;-57
2022/10/15 10:51:21;;;;;;;;;0.00;0.00;;;;;20.42;60.96;100407.00;5081691;27;45487;-58
2022/10/15 10:54:05;;;;;;;;;0.00;0.00;;;;;20.44;61.01;100402.44;5081070;28;46477;-57
2022/10/15 10:56:43;;;;;;;;;0.00;0.00;;;;;20.49;60.82;100399.47;5080189;28;45480;-55
2022/10/15 10:59:19;;;;;;;;;1.00;0.00;;;;;20.53;61.04;100389.50;5079920;28;45407;-52
2022/10/15 11:01:46;;;;;;;;;0.00;0.00;;;;;20.60;60.80;100413.03;5079563;28;45509;-51
2022/10/15 11:04:13;;;;;;;;;0.00;0.00;;;;;20.67;60.51;100431.34;5081678;27;45692;-51
2022/10/15 11:06:48;;;;;;;;;0.25;0.00;;;;;20.73;60.16;100425.66;5080162;27;45844;-55
2022/10/15 11:09:35;;;;;;;;;0.00;0.00;;;;;20.77;60.16;100424.50;5081607;27;45433;-54
2022/10/15 11:12:13;;;;;;;;;0.00;0.00;;;;;20.81;60.46;100409.16;5081531;28;45447;-55
2022/10/15 11:15:03;;;;;;;;;0.00;0.00;;;;;20.84;59.99;100409.84;5081360;27;46133;-55
2022/10/15 11:17:47;;;;;;;;;0.00;0.00;;;;;20.85;60.02;100416.00;5079246;28;45525;-54
2022/10/15 11:20:39;;;;;;;;;0.00;0.00;;;;;20.84;59.74;100412.50;5071288;28;45600;-54
2022/10/15 11:23:41;;;;;;;;;0.00;0.00;;;;;20.86;60.05;100407.06;5073325;28;45534;-51
2022/10/15 11:26:36;;;;;;;;;0.00;0.00;;;;;20.86;59.81;100410.56;5068856;28;47063;-53
2022/10/15 11:29:14;;;;;;;;;0.00;0.00;;;;;20.87;59.85;100416.78;5069278;28;45653;-54
2022/10/15 11:32:18;;;;;;;;;0.00;0.00;;;;;20.89;59.58;100407.72;5066829;27;45466;-58
2022/10/15 11:35:14;;;;;;;;;0.50;0.50;;;;;20.89;59.45;100406.84;5069836;28;45369;-50
2022/10/15 11:37:47;;;;;;;;;0.00;0.00;;;;;20.87;59.39;100414.13;5067354;28;46407;-57